Time;durP1;ratioP1;P1;durP2;ratioP2;P2;SDS_P1;SDS_P2;PMS_P1;PMS_P2;Temp;Humidity;BMP_temperature;BMP_pressure;BME280_temperature;BME280_humidity;BME280_pressure;Samples;Min_cycle;Max_cycle;Signal;HPM_P1;HPM_P2
2024/02/20 00:00:04;;;;;;;3.55;2.05;;;10.10;99.90;;;;;;5069247;28;20052;-78
2024/02/20 00:02:30;;;;;;;6.10;1.90;;;10.10;99.90;;;;;;5052124;28;20021;-78
2024/02/20 00:04:55;;;;;;;3.85;2.03;;;10.10;99.90;;;;;;5069426;28;20492;-77
2024/02/20 00:07:21;;;;;;;4.53;1.80;;;10.10;99.90;;;;;;5069223;28;20099;-78
2024/02/20 00:09:49;;;;;;;2.75;1.80;;;10.10;99.90;;;;;;5068725;28;20025;-78
2024/02/20 00:12:15;;;;;;;3.83;1.73;;;10.10;99.90;;;;;;5069247;28;20025;-78
2024/02/20 00:14:42;;;;;;;4.57;1.70;;;10.10;99.90;;;;;;5052911;28;20095;-78
2024/02/20 00:17:08;;;;;;;5.85;1.90;;;10.10;99.90;;;;;;5053835;28;20029;-78
2024/02/20 00:19:33;;;;;;;5.07;2.00;;;10.10;99.90;;;;;;5051799;28;20025;-78
2024/02/20 00:21:59;;;;;;;3.85;2.00;;;10.00;99.90;;;;;;5053545;28;20070;-78
2024/02/20 00:24:25;;;;;;;3.72;1.77;;;10.10;99.90;;;;;;5052349;28;20025;-78
2024/02/20 00:26:50;;;;;;;4.30;2.08;;;10.10;99.90;;;;;;5052962;28;20033;-78
2024/02/20 00:29:16;;;;;;;5.55;1.95;;;10.10;99.90;;;;;;5052402;28;20025;-78
2024/02/20 00:31:42;;;;;;;4.35;2.05;;;10.10;99.90;;;;;;5052898;28;20436;-78
2024/02/20 00:34:07;;;;;;;4.18;1.70;;;10.10;99.90;;;;;;5052201;28;20025;-78
2024/02/20 00:36:33;;;;;;;4.57;1.88;;;10.10;99.90;;;;;;5051430;28;20428;-78
2024/02/20 00:38:59;;;;;;;3.80;1.38;;;10.10;99.90;;;;;;5053572;28;20519;-77
2024/02/20 00:41:26;;;;;;;2.85;1.98;;;10.00;99.90;;;;;;5068736;28;20078;-78
2024/02/20 00:43:52;;;;;;;5.90;1.90;;;10.00;99.90;;;;;;5067716;28;20053;-78
2024/02/20 00:46:22;;;;;;;3.40;1.58;;;10.00;99.90;;;;;;5068702;28;20036;-78
2024/02/20 00:48:49;;;;;;;3.75;1.90;;;10.00;99.90;;;;;;5052182;28;20035;-77
2024/02/20 00:51:19;;;;;;;4.85;1.83;;;10.00;99.90;;;;;;5053191;28;20025;-78
2024/02/20 00:53:46;;;;;;;4.90;1.73;;;10.00;99.90;;;;;;5051208;28;20025;-78
2024/02/20 00:56:11;;;;;;;3.30;1.40;;;10.00;99.90;;;;;;5052831;28;20033;-77
2024/02/20 00:58:43;;;;;;;3.58;1.50;;;10.00;99.90;;;;;;5068015;28;20062;-78
2024/02/20 01:01:10;;;;;;;4.07;1.45;;;10.00;99.90;;;;;;5068636;28;20505;-77
2024/02/20 01:03:42;;;;;;;2.95;1.45;;;10.00;99.90;;;;;;5051037;28;20032;-77
2024/02/20 01:06:09;;;;;;;2.70;1.13;;;9.90;99.90;;;;;;5068191;28;20033;-77
2024/02/20 01:08:35;;;;;;;3.47;1.30;;;9.80;99.90;;;;;;5052704;28;20053;-77
2024/02/20 01:11:02;;;;;;;4.10;1.60;;;9.70;99.90;;;;;;5052705;28;20029;-78
2024/02/20 01:13:28;;;;;;;2.92;1.50;;;9.70;99.90;;;;;;5051622;28;20497;-77
2024/02/20 01:15:53;;;;;;;3.95;1.70;;;9.60;99.90;;;;;;5050791;28;20030;-78
2024/02/20 01:18:19;;;;;;;2.30;1.35;;;9.60;99.90;;;;;;5068319;28;20063;-78
2024/02/20 01:20:44;;;;;;;3.92;1.63;;;9.60;99.90;;;;;;5051032;28;20021;-78
2024/02/20 01:23:10;;;;;;;3.33;1.20;;;9.60;99.90;;;;;;5052933;28;20033;-78
2024/02/20 01:25:36;;;;;;;4.43;2.45;;;9.50;99.90;;;;;;5050983;28;20032;-78
2024/02/20 01:28:02;;;;;;;3.65;1.70;;;9.50;99.90;;;;;;5052705;28;20025;-78
2024/02/20 01:30:27;;;;;;;2.33;1.30;;;9.50;99.90;;;;;;5068098;28;20029;-78
2024/02/20 01:32:57;;;;;;;2.97;1.20;;;9.50;99.90;;;;;;5052208;28;20051;-78
2024/02/20 01:35:23;;;;;;;3.03;1.40;;;9.50;99.90;;;;;;5068350;28;20040;-77
2024/02/20 01:37:49;;;;;;;5.03;2.00;;;9.50;99.90;;;;;;5067656;28;20029;-78
2024/02/20 01:40:15;;;;;;;3.47;1.40;;;9.50;99.90;;;;;;5052489;28;20025;-78
2024/02/20 01:42:41;;;;;;;4.15;1.40;;;9.50;99.90;;;;;;5067399;28;20596;-77
2024/02/20 01:45:08;;;;;;;4.35;1.27;;;9.40;99.90;;;;;;5068064;28;20489;-78
2024/02/20 01:47:34;;;;;;;3.00;1.13;;;9.40;99.90;;;;;;5067437;28;20029;-78
2024/02/20 01:50:01;;;;;;;3.33;1.50;;;9.40;99.90;;;;;;5051540;28;20032;-78
2024/02/20 01:52:27;;;;;;;4.95;1.50;;;9.40;99.90;;;;;;5068031;28;20025;-78
2024/02/20 01:54:54;;;;;;;4.13;1.38;;;9.40;99.90;;;;;;5067338;28;20036;-78
2024/02/20 01:57:20;;;;;;;2.55;1.55;;;9.40;99.90;;;;;;5052476;28;20021;-78
2024/02/20 01:59:45;;;;;;;6.40;1.30;;;9.30;99.90;;;;;;5067390;28;20485;-78
2024/02/20 02:02:11;;;;;;;2.40;1.40;;;9.30;99.90;;;;;;5052415;28;20036;-78
2024/02/20 02:04:37;;;;;;;3.30;1.30;;;9.30;99.90;;;;;;5051173;28;20025;-77
2024/02/20 02:07:03;;;;;;;3.50;1.05;;;9.30;99.90;;;;;;5051237;28;20029;-78
2024/02/20 02:09:28;;;;;;;2.67;1.00;;;9.30;99.90;;;;;;5051420;28;20079;-78
2024/02/20 02:11:55;;;;;;;3.25;1.30;;;9.30;99.90;;;;;;5051733;28;20036;-78
2024/02/20 02:14:20;;;;;;;4.93;1.00;;;9.40;99.90;;;;;;5051243;28;20035;-78
2024/02/20 02:16:46;;;;;;;3.05;1.10;;;9.40;99.90;;;;;;5051798;28;20029;-78
2024/02/20 02:19:12;;;;;;;4.13;1.50;;;9.50;99.90;;;;;;5054248;28;20470;-78
2024/02/20 02:21:37;;;;;;;4.07;1.20;;;9.40;99.90;;;;;;5055228;28;20074;-78
2024/02/20 02:24:07;;;;;;;3.83;1.35;;;9.50;99.90;;;;;;5054339;28;20025;-78
2024/02/20 02:26:33;;;;;;;3.58;1.10;;;9.50;99.90;;;;;;5054896;28;20064;-78
2024/02/20 02:28:59;;;;;;;5.43;1.15;;;9.50;99.90;;;;;;5054778;28;20119;-78
2024/02/20 02:31:24;;;;;;;2.60;0.90;;;9.50;99.90;;;;;;5055634;28;20049;-78
2024/02/20 02:33:50;;;;;;;1.55;0.88;;;9.50;99.90;;;;;;5054149;28;20021;-78
2024/02/20 02:36:16;;;;;;;2.83;0.80;;;9.40;99.90;;;;;;5054559;28;20124;-78
2024/02/20 02:38:41;;;;;;;2.92;1.00;;;9.40;99.90;;;;;;5054098;28;20469;-78
2024/02/20 02:41:07;;;;;;;3.50;1.00;;;9.30;99.90;;;;;;5055680;28;20078;-78
2024/02/20 02:43:32;;;;;;;4.82;1.30;;;9.30;99.90;;;;;;5054168;28;20394;-78
2024/02/20 02:45:58;;;;;;;5.18;2.08;;;9.30;99.90;;;;;;5053772;28;20064;-78
2024/02/20 02:48:23;;;;;;;1.42;0.80;;;9.20;99.90;;;;;;5054537;28;20060;-78
2024/02/20 02:50:49;;;;;;;1.92;1.10;;;9.20;99.90;;;;;;5053571;28;20102;-77
2024/02/20 02:53:15;;;;;;;2.55;1.05;;;9.20;99.90;;;;;;5055394;28;20028;-78
2024/02/20 02:55:41;;;;;;;3.45;0.98;;;9.20;99.90;;;;;;5054854;28;20036;-78
2024/02/20 02:58:07;;;;;;;6.00;1.40;;;9.10;99.90;;;;;;5055534;28;20388;-78
2024/02/20 03:00:33;;;;;;;4.28;0.98;;;9.10;99.90;;;;;;5055148;28;20365;-77
2024/02/20 03:02:58;;;;;;;3.63;1.55;;;9.00;99.90;;;;;;5054486;28;20067;-77
2024/02/20 03:05:24;;;;;;;4.82;0.98;;;9.00;99.90;;;;;;5053805;28;20386;-77
2024/02/20 03:07:50;;;;;;;8.07;1.13;;;9.00;99.90;;;;;;5054324;28;20021;-77
2024/02/20 03:10:16;;;;;;;5.32;1.10;;;9.00;99.90;;;;;;5055119;28;20032;-77
2024/02/20 03:12:41;;;;;;;5.43;0.95;;;8.90;99.90;;;;;;5053978;28;20037;-77
2024/02/20 03:15:07;;;;;;;2.72;0.95;;;8.90;99.90;;;;;;5053906;28;20040;-77
2024/02/20 03:17:33;;;;;;;3.33;0.90;;;8.90;99.90;;;;;;5053807;28;20062;-77
2024/02/20 03:19:59;;;;;;;4.07;0.98;;;8.80;99.90;;;;;;5052870;28;20120;-77
2024/02/20 03:22:24;;;;;;;3.47;1.23;;;8.80;99.90;;;;;;5053529;28;20029;-77
2024/02/20 03:24:52;;;;;;;4.50;0.90;;;8.80;99.90;;;;;;5054306;28;20032;-78
2024/02/20 03:27:18;;;;;;;2.60;0.88;;;8.70;99.90;;;;;;5054489;28;20102;-78
2024/02/20 03:29:44;;;;;;;6.90;1.00;;;8.70;99.90;;;;;;5052341;28;20106;-77
2024/02/20 03:32:10;;;;;;;2.40;0.85;;;8.70;99.90;;;;;;5053570;28;20057;-77
2024/02/20 03:34:35;;;;;;;5.53;1.23;;;8.70;99.90;;;;;;5053286;28;20094;-78
2024/02/20 03:37:04;;;;;;;5.65;1.13;;;8.70;99.90;;;;;;5053305;28;20033;-77
2024/02/20 03:39:30;;;;;;;4.32;0.80;;;8.70;99.90;;;;;;5054639;28;20104;-77
2024/02/20 03:41:55;;;;;;;7.50;1.83;;;8.70;99.90;;;;;;5069080;28;20099;-78
2024/02/20 03:44:21;;;;;;;9.55;1.35;;;8.70;99.90;;;;;;5053838;28;20057;-78
2024/02/20 03:46:46;;;;;;;5.53;1.13;;;8.70;99.90;;;;;;5052687;28;20029;-77
2024/02/20 03:49:13;;;;;;;7.55;1.30;;;8.80;99.90;;;;;;5069819;28;20505;-78
2024/02/20 03:51:38;;;;;;;5.05;0.70;;;8.80;99.90;;;;;;5069221;28;20099;-78
2024/02/20 03:54:05;;;;;;;3.55;1.02;;;8.70;99.90;;;;;;5052990;28;20119;-78
2024/02/20 03:56:31;;;;;;;4.90;0.88;;;8.80;99.90;;;;;;5053093;28;20474;-78
2024/02/20 03:58:56;;;;;;;5.97;1.08;;;8.80;99.90;;;;;;5069080;28;20025;-78
2024/02/20 04:01:22;;;;;;;4.85;1.20;;;8.70;99.90;;;;;;5069567;28;20470;-77
2024/02/20 04:03:47;;;;;;;3.08;1.05;;;8.70;99.90;;;;;;5053428;28;20036;-78
2024/02/20 04:06:13;;;;;;;4.82;1.35;;;8.80;99.90;;;;;;5052835;28;20056;-77
2024/02/20 04:08:38;;;;;;;6.13;0.90;;;8.70;99.90;;;;;;5054249;28;20033;-77
2024/02/20 04:11:04;;;;;;;6.20;1.20;;;8.80;99.90;;;;;;5068789;28;20029;-78
2024/02/20 04:13:30;;;;;;;5.18;1.30;;;8.70;99.90;;;;;;5069235;28;20359;-78
2024/02/20 04:15:55;;;;;;;3.50;1.20;;;8.70;99.90;;;;;;5068722;28;20036;-78
2024/02/20 04:18:21;;;;;;;4.47;1.30;;;8.60;99.90;;;;;;5069161;28;20086;-78
2024/02/20 04:20:47;;;;;;;7.57;1.65;;;8.70;99.90;;;;;;5068713;28;20071;-78
2024/02/20 04:23:12;;;;;;;7.20;1.25;;;8.70;99.90;;;;;;5053726;28;20369;-78
2024/02/20 04:25:38;;;;;;;6.65;1.55;;;8.60;99.90;;;;;;5068900;28;20075;-78
2024/02/20 04:28:04;;;;;;;5.72;0.85;;;8.70;99.90;;;;;;5052046;28;20035;-78
2024/02/20 04:30:29;;;;;;;3.80;0.98;;;8.70;99.90;;;;;;5053468;28;20402;-77
2024/02/20 04:32:55;;;;;;;5.22;1.10;;;8.70;99.90;;;;;;5068251;28;20029;-78
2024/02/20 04:35:21;;;;;;;4.47;0.80;;;8.70;99.90;;;;;;5053072;28;20420;-78
2024/02/20 04:37:47;;;;;;;8.32;1.20;;;8.70;99.90;;;;;;5052995;28;20036;-77
2024/02/20 04:40:13;;;;;;;6.47;1.45;;;8.70;99.90;;;;;;5052025;28;20370;-78
2024/02/20 04:42:38;;;;;;;8.43;1.02;;;8.60;99.90;;;;;;5052193;28;20033;-77
2024/02/20 04:45:05;;;;;;;5.15;1.13;;;8.60;99.90;;;;;;5068033;28;20064;-77
2024/02/20 04:47:30;;;;;;;6.57;1.00;;;8.70;99.90;;;;;;5052042;28;20021;-77
2024/02/20 04:49:56;;;;;;;7.22;1.73;;;8.60;99.90;;;;;;5068098;28;20036;-77
2024/02/20 04:52:22;;;;;;;5.70;1.10;;;8.70;99.90;;;;;;5052130;28;20032;-77
2024/02/20 04:54:47;;;;;;;5.90;1.15;;;8.70;99.90;;;;;;5052229;28;20056;-77
2024/02/20 04:57:13;;;;;;;3.33;0.88;;;8.60;99.90;;;;;;5068639;28;20465;-77
2024/02/20 04:59:41;;;;;;;4.57;0.93;;;8.70;99.90;;;;;;5051937;28;20025;-77
2024/02/20 05:02:07;;;;;;;4.20;1.20;;;8.60;99.90;;;;;;5068118;28;20024;-78
2024/02/20 05:04:32;;;;;;;8.27;1.55;;;8.60;99.90;;;;;;5052817;28;20029;-78
2024/02/20 05:06:58;;;;;;;2.75;1.02;;;8.60;99.90;;;;;;5067993;28;20390;-78
2024/02/20 05:09:24;;;;;;;5.15;1.50;;;8.70;99.90;;;;;;5052926;28;20083;-77
2024/02/20 05:11:50;;;;;;;5.40;1.30;;;8.60;99.90;;;;;;5067560;28;20367;-77
2024/02/20 05:14:15;;;;;;;4.90;1.20;;;8.70;99.90;;;;;;5051406;28;20033;-77
2024/02/20 05:16:41;;;;;;;6.18;1.30;;;8.60;99.90;;;;;;5068078;28;20029;-77
2024/02/20 05:19:06;;;;;;;7.45;1.20;;;8.60;99.90;;;;;;5051943;28;20036;-77
2024/02/20 05:21:32;;;;;;;7.55;1.55;;;8.50;99.90;;;;;;5052378;28;20067;-77
2024/02/20 05:23:58;;;;;;;5.70;1.48;;;8.50;99.90;;;;;;5052380;28;20017;-77
2024/02/20 05:26:23;;;;;;;4.32;1.30;;;8.50;99.90;;;;;;5051052;28;20029;-77
2024/02/20 05:28:49;;;;;;;5.13;1.40;;;8.50;99.90;;;;;;5052167;28;20072;-76
2024/02/20 05:31:29;;;;;;;4.70;1.40;;;8.50;99.90;;;;;;5068213;28;20029;-77
2024/02/20 05:33:56;;;;;;;5.70;1.73;;;8.40;99.90;;;;;;5067907;28;20040;-77
2024/02/20 05:36:22;;;;;;;9.25;2.17;;;8.40;99.90;;;;;;5068244;28;20075;-77
2024/02/20 05:38:47;;;;;;;3.92;1.77;;;8.40;99.90;;;;;;5051074;28;20549;-76
2024/02/20 05:41:13;;;;;;;9.95;1.70;;;8.40;99.90;;;;;;5052553;28;20458;-77
2024/02/20 05:43:39;;;;;;;8.82;1.63;;;8.30;99.90;;;;;;5067793;28;20401;-77
2024/02/20 05:46:04;;;;;;;7.43;1.45;;;8.30;99.90;;;;;;5067442;28;20036;-77
2024/02/20 05:48:30;;;;;;;2.72;1.30;;;8.40;99.90;;;;;;5052864;28;20021;-77
2024/02/20 05:50:55;;;;;;;10.13;1.90;;;8.30;99.90;;;;;;5067421;28;20021;-77
2024/02/20 05:53:21;;;;;;;5.22;1.48;;;8.30;99.90;;;;;;5054085;28;20032;-77
2024/02/20 05:55:47;;;;;;;6.30;1.90;;;8.30;99.90;;;;;;5071071;28;20067;-77
2024/02/20 05:58:12;;;;;;;7.60;1.90;;;8.30;99.90;;;;;;5056172;28;20454;-78
2024/02/20 06:00:38;;;;;;;8.20;1.73;;;8.30;99.90;;;;;;5056228;28;20028;-77
2024/02/20 06:03:05;;;;;;;6.22;1.90;;;8.30;99.90;;;;;;5055543;28;20355;-77
2024/02/20 06:05:31;;;;;;;6.57;1.55;;;8.30;99.90;;;;;;5055092;28;20060;-77
2024/02/20 06:07:57;;;;;;;6.50;1.45;;;8.20;99.90;;;;;;5054033;28;20033;-77
2024/02/20 06:10:22;;;;;;;6.72;1.92;;;8.20;99.90;;;;;;5071425;28;20025;-76
2024/02/20 06:12:48;;;;;;;3.75;1.90;;;8.20;99.90;;;;;;5070868;28;20060;-77
2024/02/20 06:15:13;;;;;;;4.82;2.17;;;8.20;99.90;;;;;;5056152;28;20033;-77
2024/02/20 06:17:39;;;;;;;8.35;1.90;;;8.20;99.90;;;;;;5071079;28;20035;-77
2024/02/20 06:20:07;;;;;;;6.75;1.80;;;8.20;99.90;;;;;;5053951;28;20033;-77
2024/02/20 06:22:32;;;;;;;6.95;2.13;;;8.10;99.90;;;;;;5054602;28;20025;-77
2024/02/20 06:24:58;;;;;;;7.13;2.38;;;8.20;99.90;;;;;;5055195;28;20459;-77
2024/02/20 06:27:24;;;;;;;6.43;2.13;;;8.10;99.90;;;;;;5055635;28;20057;-77
2024/02/20 06:29:50;;;;;;;10.93;2.90;;;8.10;99.90;;;;;;5055087;28;20075;-77
2024/02/20 06:32:16;;;;;;;11.20;2.42;;;8.10;99.90;;;;;;5071192;28;20025;-79
2024/02/20 06:34:41;;;;;;;8.25;1.90;;;8.10;99.90;;;;;;5055388;28;20068;-76
2024/02/20 06:37:07;;;;;;;5.25;1.92;;;8.10;99.90;;;;;;5054856;28;20037;-77
2024/02/20 06:39:32;;;;;;;11.60;2.22;;;8.10;99.90;;;;;;5070627;28;20083;-78
2024/02/20 06:41:58;;;;;;;11.13;2.60;;;8.10;99.90;;;;;;5054045;28;20363;-76
2024/02/20 06:44:23;;;;;;;8.68;2.03;;;8.10;99.90;;;;;;5055946;28;20079;-77
2024/02/20 06:46:50;;;;;;;13.15;2.38;;;8.10;99.90;;;;;;5053798;28;20036;-76
2024/02/20 06:49:16;;;;;;;7.18;2.40;;;8.10;99.90;;;;;;5054950;28;20035;-76
2024/02/20 06:51:41;;;;;;;9.07;2.25;;;8.10;99.90;;;;;;5053975;28;20192;-77
2024/02/20 06:54:07;;;;;;;7.70;2.25;;;8.10;99.90;;;;;;5053353;28;20470;-77
2024/02/20 06:56:32;;;;;;;6.70;2.30;;;8.10;99.90;;;;;;5053804;28;20489;-78
2024/02/20 06:58:58;;;;;;;11.60;2.65;;;8.10;99.90;;;;;;5052571;28;20029;-78
2024/02/20 07:01:24;;;;;;;8.93;2.38;;;8.10;99.90;;;;;;5054115;28;20058;-78
2024/02/20 07:03:52;;;;;;;9.80;2.38;;;8.10;99.90;;;;;;5054610;28;20107;-78
2024/02/20 07:06:18;;;;;;;6.65;2.20;;;8.10;99.90;;;;;;5053905;28;20039;-78
2024/02/20 07:08:43;;;;;;;4.93;2.20;;;8.10;99.90;;;;;;5054502;28;20029;-78
2024/02/20 07:11:13;;;;;;;8.98;2.60;;;8.10;99.90;;;;;;5054415;28;20033;-78
2024/02/20 07:13:38;;;;;;;6.78;2.20;;;8.10;99.90;;;;;;5054104;28;20037;-78
2024/02/20 07:16:07;;;;;;;9.82;2.20;;;8.10;99.90;;;;;;5053216;28;20029;-78
2024/02/20 07:18:35;;;;;;;9.77;2.22;;;8.10;99.90;;;;;;5054832;28;20090;-78
2024/02/20 07:21:01;;;;;;;6.72;2.20;;;8.10;99.90;;;;;;5053150;28;20025;-78
2024/02/20 07:23:27;;;;;;;7.20;1.95;;;8.10;99.90;;;;;;5053703;28;20025;-78
2024/02/20 07:25:53;;;;;;;10.32;3.05;;;8.10;99.90;;;;;;5054203;28;20086;-78
2024/02/20 07:28:18;;;;;;;11.30;2.08;;;8.20;99.90;;;;;;5054818;28;20040;-78
2024/02/20 07:30:44;;;;;;;5.10;2.20;;;8.20;99.90;;;;;;5053505;28;20036;-78
2024/02/20 07:33:10;;;;;;;7.15;2.25;;;8.20;99.90;;;;;;5053810;28;20032;-78
2024/02/20 07:35:38;;;;;;;9.52;3.05;;;8.20;99.90;;;;;;5053400;28;20021;-78
2024/02/20 07:38:03;;;;;;;9.60;2.10;;;8.20;99.90;;;;;;5052681;28;20029;-78
2024/02/20 07:40:29;;;;;;;9.07;2.63;;;8.20;99.90;;;;;;5053234;28;20032;-78
2024/02/20 07:42:55;;;;;;;8.30;2.50;;;8.30;99.90;;;;;;5053801;28;20060;-77
2024/02/20 07:45:21;;;;;;;9.73;2.50;;;8.20;99.90;;;;;;5053334;28;20398;-78
2024/02/20 07:47:47;;;;;;;9.10;2.97;;;8.20;99.90;;;;;;5053073;28;20028;-78
2024/02/20 07:50:12;;;;;;;9.75;2.60;;;8.20;99.90;;;;;;5053773;28;20025;-78
2024/02/20 07:52:38;;;;;;;7.25;2.83;;;8.20;99.90;;;;;;5054172;28;20029;-78
2024/02/20 07:55:04;;;;;;;9.38;2.40;;;8.30;99.90;;;;;;5052505;28;20025;-78
2024/02/20 07:57:33;;;;;;;10.43;3.17;;;8.30;99.90;;;;;;5053275;28;20051;-78
2024/02/20 07:59:59;;;;;;;11.18;2.83;;;8.40;99.90;;;;;;5052440;28;20108;-78
2024/02/20 08:02:25;;;;;;;7.47;2.42;;;8.30;99.90;;;;;;5054138;28;20053;-78
2024/02/20 08:04:51;;;;;;;10.68;3.03;;;8.30;99.90;;;;;;5052881;28;20029;-78
2024/02/20 08:07:17;;;;;;;15.57;3.55;;;8.30;99.90;;;;;;5052145;28;20466;-78
2024/02/20 08:09:42;;;;;;;7.22;2.63;;;8.30;99.90;;;;;;5052764;28;20477;-78
2024/02/20 08:12:08;;;;;;;10.73;2.75;;;8.30;99.90;;;;;;5051925;28;20450;-78
2024/02/20 08:14:34;;;;;;;12.75;2.85;;;8.30;99.90;;;;;;5052642;28;20472;-78
2024/02/20 08:17:00;;;;;;;9.23;2.90;;;8.30;99.90;;;;;;5051711;28;20029;-78
2024/02/20 08:19:25;;;;;;;11.07;3.35;;;8.30;99.90;;;;;;5052615;28;20029;-78
2024/02/20 08:21:51;;;;;;;8.45;2.80;;;8.40;99.90;;;;;;5052973;28;20470;-78
2024/02/20 08:24:17;;;;;;;11.38;4.00;;;8.40;99.90;;;;;;5052903;28;20021;-78
2024/02/20 08:26:43;;;;;;;9.57;2.95;;;8.50;99.90;;;;;;5051743;28;20400;-78
2024/02/20 08:29:11;;;;;;;9.15;2.83;;;8.50;99.90;;;;;;5051487;28;20094;-78
2024/02/20 08:31:41;;;;;;;9.55;3.42;;;8.50;99.90;;;;;;5053445;28;20018;-78
2024/02/20 08:34:07;;;;;;;8.88;3.15;;;8.50;99.90;;;;;;5051624;28;20096;-78
2024/02/20 08:36:33;;;;;;;10.45;3.17;;;8.50;99.90;;;;;;5052103;28;20041;-78
2024/02/20 08:38:59;;;;;;;10.15;2.90;;;8.50;99.90;;;;;;5052753;28;20465;-78
2024/02/20 08:41:25;;;;;;;12.02;3.28;;;8.50;99.90;;;;;;5053169;28;20021;-78
2024/02/20 08:43:51;;;;;;;15.02;3.92;;;8.60;99.90;;;;;;5051704;28;20079;-78
2024/02/20 08:46:17;;;;;;;7.82;2.75;;;8.60;99.90;;;;;;5051433;28;20048;-78
2024/02/20 08:48:43;;;;;;;10.02;3.30;;;8.50;99.90;;;;;;5053143;28;20036;-78
2024/02/20 08:51:08;;;;;;;11.20;3.33;;;8.50;99.90;;;;;;5051112;28;20029;-78
2024/02/20 08:53:34;;;;;;;10.98;3.38;;;8.50;99.90;;;;;;5052350;28;20025;-78
2024/02/20 08:55:59;;;;;;;10.15;3.05;;;8.50;99.90;;;;;;5051344;28;20036;-78
2024/02/20 08:58:25;;;;;;;11.00;3.63;;;8.60;99.90;;;;;;5052037;28;20082;-78
2024/02/20 09:00:50;;;;;;;9.23;3.33;;;8.70;99.90;;;;;;5052127;28;20407;-78
2024/02/20 09:03:16;;;;;;;10.40;3.28;;;8.80;99.90;;;;;;5052490;28;20414;-78
2024/02/20 09:05:42;;;;;;;15.40;3.55;;;8.80;99.90;;;;;;5051325;28;20029;-78
2024/02/20 09:08:08;;;;;;;9.02;3.85;;;8.70;99.90;;;;;;5051526;28;20036;-78
2024/02/20 09:10:33;;;;;;;9.50;3.35;;;8.80;99.90;;;;;;5051728;28;20044;-78
2024/02/20 09:13:02;;;;;;;12.18;3.58;;;8.80;99.90;;;;;;5052105;28;20083;-77
2024/02/20 09:15:27;;;;;;;13.00;3.58;;;8.80;99.90;;;;;;5051542;28;20033;-78
2024/02/20 09:17:53;;;;;;;8.75;3.33;;;8.80;99.90;;;;;;5052796;28;20029;-79
2024/02/20 09:20:18;;;;;;;10.38;3.85;;;8.80;99.90;;;;;;5052298;28;20381;-78
2024/02/20 09:22:44;;;;;;;11.23;4.35;;;9.00;99.90;;;;;;5051640;28;20055;-78
2024/02/20 09:25:10;;;;;;;12.02;4.57;;;9.00;99.90;;;;;;5052136;28;20052;-78
2024/02/20 09:27:42;;;;;;;11.73;4.00;;;9.00;99.90;;;;;;5052209;28;20139;-78
2024/02/20 09:30:07;;;;;;;;;;;9.00;99.90;;;;;;5056870;28;20032;-78
2024/02/20 09:32:33;;;;;;;12.77;3.80;;;9.10;99.90;;;;;;5055669;28;19911;-78
2024/02/20 09:34:59;;;;;;;14.50;4.00;;;9.10;99.90;;;;;;5055206;28;20485;-77
2024/02/20 09:37:25;;;;;;;12.38;3.90;;;9.10;99.90;;;;;;5055485;28;20493;-78
2024/02/20 09:39:50;;;;;;;12.88;5.05;;;9.10;99.90;;;;;;5056943;28;20021;-78
2024/02/20 09:42:26;;;;;;;13.35;3.75;;;9.10;99.90;;;;;;5056485;28;20036;-78
2024/02/20 09:44:54;;;;;;;14.73;3.53;;;9.20;99.90;;;;;;5055672;28;20132;-78
2024/02/20 09:47:20;;;;;;;12.40;3.88;;;9.30;99.90;;;;;;5054730;28;20060;-78
2024/02/20 09:49:49;;;;;;;15.27;4.13;;;9.40;99.90;;;;;;5055501;28;20025;-78
2024/02/20 09:52:15;;;;;;;14.43;3.88;;;9.30;99.90;;;;;;5055796;28;20060;-78
2024/02/20 09:54:43;;;;;;;11.77;3.65;;;9.40;99.90;;;;;;5055223;28;20029;-78
2024/02/20 09:57:10;;;;;;;12.15;3.78;;;9.40;99.90;;;;;;5054512;28;20029;-78
2024/02/20 09:59:35;;;;;;;16.23;4.07;;;9.40;99.90;;;;;;5055227;28;20060;-78
2024/02/20 10:02:02;;;;;;;12.85;3.65;;;9.30;99.90;;;;;;5054290;28;20052;-77
2024/02/20 10:04:33;;;;;;;12.50;3.65;;;9.20;99.90;;;;;;5055112;28;20029;-78
2024/02/20 10:07:03;;;;;;;12.25;4.43;;;9.20;99.90;;;;;;5054997;28;20470;-78
2024/02/20 10:09:31;;;;;;;12.82;4.45;;;9.20;99.90;;;;;;5055123;28;20029;-78
2024/02/20 10:11:56;;;;;;;7.85;3.80;;;9.20;99.90;;;;;;5056220;28;20025;-78
2024/02/20 10:14:28;;;;;;;14.23;4.70;;;9.20;99.90;;;;;;5054292;28;20040;-78
2024/02/20 10:16:58;;;;;;;;;;;9.30;99.90;;;;;;5055222;28;20437;-78
2024/02/20 10:19:23;;;;;;;13.55;4.13;;;9.30;99.90;;;;;;5054364;28;19913;-77
2024/02/20 10:21:52;;;;;;;10.25;3.63;;;9.30;99.90;;;;;;5054891;28;20053;-78
2024/02/20 10:24:17;;;;;;;11.77;4.15;;;9.40;99.90;;;;;;5054192;28;20040;-78
2024/02/20 10:26:46;;;;;;;17.90;4.10;;;9.40;99.90;;;;;;5054698;28;20032;-78
2024/02/20 10:29:17;;;;;;;12.27;4.82;;;9.50;99.90;;;;;;5054144;28;20378;-78
2024/02/20 10:31:42;;;;;;;12.52;4.15;;;9.50;99.90;;;;;;5055630;28;20017;-78
2024/02/20 10:34:08;;;;;;;8.50;3.38;;;9.70;99.90;;;;;;5054242;28;20025;-77
2024/02/20 10:36:33;;;;;;;11.82;3.58;;;9.80;99.90;;;;;;5054603;28;20033;-78
2024/02/20 10:39:07;;;;;;;12.15;3.80;;;10.00;99.90;;;;;;5054352;28;20029;-77
2024/02/20 10:41:33;;;;;;;11.52;3.55;;;10.20;99.90;;;;;;5054404;28;20044;-78
2024/02/20 10:43:59;;;;;;;11.38;4.10;;;10.40;99.90;;;;;;5055744;28;20095;-78
2024/02/20 10:46:26;;;;;;;17.70;4.45;;;10.50;99.90;;;;;;5054799;28;20025;-79
2024/02/20 10:48:58;;;;;;;12.52;4.18;;;10.40;99.90;;;;;;5054714;28;20044;-78
2024/02/20 10:51:26;;;;;;;13.80;4.18;;;10.30;99.90;;;;;;5054833;28;20079;-78
2024/02/20 10:53:54;;;;;;;15.80;4.38;;;10.20;99.90;;;;;;5054404;28;20390;-78
2024/02/20 10:56:21;;;;;;;12.60;4.47;;;10.10;99.90;;;;;;5054889;28;20059;-78
2024/02/20 10:58:49;;;;;;;10.30;4.00;;;10.10;99.90;;;;;;5055206;28;20025;-78
2024/02/20 11:01:15;;;;;;;14.05;4.07;;;10.10;99.90;;;;;;5054909;28;20104;-78
2024/02/20 11:03:42;;;;;;;11.45;3.75;;;10.10;99.90;;;;;;5055154;28;20061;-77
2024/02/20 11:06:11;;;;;;;9.70;3.50;;;10.30;99.90;;;;;;5053390;28;20036;-78
2024/02/20 11:08:37;;;;;;;12.32;3.50;;;10.40;99.90;;;;;;5053837;28;20462;-78
2024/02/20 11:11:13;;;;;;;14.15;3.63;;;10.50;99.90;;;;;;5054810;28;20040;-78
2024/02/20 11:13:40;;;;;;;13.05;3.50;;;10.50;99.90;;;;;;5055135;28;20059;-78
2024/02/20 11:16:13;;;;;;;13.55;3.42;;;10.40;99.90;;;;;;5054271;28;20037;-78
2024/02/20 11:18:57;;;;;;;11.80;3.47;;;10.40;99.90;;;;;;5053888;28;20025;-77
2024/02/20 11:21:27;;;;;;;13.63;3.45;;;10.50;99.90;;;;;;5054415;28;20028;-78
2024/02/20 11:23:53;;;;;;;12.70;3.30;;;10.60;99.90;;;;;;5053800;28;20032;-78
2024/02/20 11:26:27;;;;;;;11.45;3.35;;;10.70;99.90;;;;;;5052862;28;20029;-78
2024/02/20 11:28:53;;;;;;;9.50;3.03;;;10.70;99.90;;;;;;5055185;28;20024;-78
2024/02/20 11:31:28;;;;;;;9.75;2.50;;;10.70;99.90;;;;;;5054083;28;20064;-78
2024/02/20 11:33:54;;;;;;;14.07;3.17;;;10.60;99.90;;;;;;5054660;28;20029;-78
2024/02/20 11:36:20;;;;;;;10.35;2.95;;;10.50;99.90;;;;;;5052771;28;20116;-78
2024/02/20 11:39:03;;;;;;;6.82;2.75;;;10.50;99.90;;;;;;5053679;28;20064;-78
2024/02/20 11:41:29;;;;;;;11.65;2.58;;;10.60;99.90;;;;;;5053592;28;20044;-78
2024/02/20 11:44:00;;;;;;;8.93;3.58;;;10.70;99.90;;;;;;5053245;28;20076;-78
2024/02/20 11:46:25;;;;;;;8.98;2.92;;;10.80;99.90;;;;;;5052323;28;20033;-78
2024/02/20 11:48:51;;;;;;;7.03;2.72;;;10.80;99.90;;;;;;5054158;28;20032;-78
2024/02/20 11:51:21;;;;;;;12.98;3.05;;;10.70;99.90;;;;;;5052168;28;20025;-78
2024/02/20 11:53:54;;;;;;;12.15;2.78;;;10.70;99.90;;;;;;5053077;28;20484;-78
2024/02/20 11:56:19;;;;;;;8.27;2.95;;;10.70;99.90;;;;;;5052344;28;20032;-78
2024/02/20 11:58:45;;;;;;;9.20;2.80;;;10.60;99.90;;;;;;5054196;28;20542;-78
2024/02/20 12:01:11;;;;;;;15.82;3.88;;;10.60;99.90;;;;;;5052392;28;20112;-78
2024/02/20 12:03:36;;;;;;;12.95;3.38;;;10.60;99.90;;;;;;5053001;28;20079;-78
2024/02/20 12:06:04;;;;;;;7.93;2.53;;;10.50;99.90;;;;;;5054099;28;20033;-78
2024/02/20 12:08:56;;;;;;;10.57;2.80;;;10.50;99.90;;;;;;5052048;28;20029;-78
2024/02/20 12:11:22;;;;;;;10.35;2.83;;;10.50;99.90;;;;;;5052911;28;20335;-78
2024/02/20 12:13:50;;;;;;;12.27;3.00;;;10.60;99.90;;;;;;5052773;28;20037;-78
2024/02/20 12:16:36;;;;;;;12.93;3.03;;;10.80;99.90;;;;;;5052204;28;20033;-78
2024/02/20 12:19:02;;;;;;;9.02;3.10;;;11.00;99.90;;;;;;5053775;28;20155;-78
2024/02/20 12:21:29;;;;;;;8.05;2.90;;;11.20;99.90;;;;;;5052985;28;20419;-78
2024/02/20 12:23:59;;;;;;;13.57;3.40;;;11.10;99.90;;;;;;5052597;28;20523;-79
2024/02/20 12:26:26;;;;;;;12.68;3.50;;;11.10;99.90;;;;;;5053250;28;20033;-79
2024/02/20 12:28:54;;;;;;;11.65;4.03;;;11.20;99.90;;;;;;5053698;28;20029;-79
2024/02/20 12:31:21;;;;;;;10.68;3.13;;;11.30;99.90;;;;;;5051840;28;20378;-79
2024/02/20 12:33:47;;;;;;;9.60;2.35;;;11.20;99.90;;;;;;5052353;28;20021;-79
2024/02/20 12:36:13;;;;;;;5.90;2.17;;;11.10;99.90;;;;;;5051819;28;20037;-79
2024/02/20 12:38:38;;;;;;;9.63;2.55;;;11.10;99.90;;;;;;5052210;28;20421;-79
2024/02/20 12:41:05;;;;;;;8.88;2.85;;;11.10;99.90;;;;;;5052459;28;20488;-79
2024/02/20 12:43:31;;;;;;;10.02;2.60;;;11.10;99.90;;;;;;5051405;28;20061;-79
2024/02/20 12:45:57;;;;;;;6.82;2.60;;;11.30;99.90;;;;;;5053458;28;20043;-79
2024/02/20 12:48:23;;;;;;;10.38;2.42;;;11.20;99.90;;;;;;5052972;28;20057;-79